Marco Polo — BR2031 — position and weather

sailwx.info

Track history (hours):
 
Tides and Currents Weather Stations Pressure Air Temp Water Temp Dewpoint Dewpoint Depression Visibility Wind Speed Wind Dir Waves Ship Positions

Marco Polo

Last reported at 2014-Jul-30 09:31 UTC. Time now 2014-Jul-30 13:11 UTC.
Position N 24°26' E 118°17'.

Length 32 m.

MMSI: 416000256.

Date/timePositionNaut miles runAvg speedWind from/ knotsBaromVisibWave heightAir tempDewpointWater temp
2014-Jul-30 09:31N 24°26' E 118°17'8 8.8
2014-Jul-30 08:33N 24°32' E 118°11'9 8.6
2014-Jul-30 07:31N 24°25' E 118°17'0 0.0
2014-Jul-30 06:27N 24°25' E 118°17'0 0.1
2014-Jul-30 05:33N 24°25' E 118°17'0 0.0
2014-Jul-30 04:33N 24°25' E 118°17'0 0.0
2014-Jul-30 03:33N 24°25' E 118°17'1 1.3
2014-Jul-30 02:33N 24°26' E 118°17'7 7.3
2014-Jul-30 01:33N 24°32' E 118°12'8 7.9
2014-Jul-30 00:29N 24°25' E 118°17'0 0.0
2014-Jul-29 23:33N 24°25' E 118°17'0 0.0
2014-Jul-29 22:31N 24°25' E 118°17'0 0.0
2014-Jul-29 18:30N 24°25' E 118°17'0 0.0
2014-Jul-29 17:29N 24°25' E 118°17'0 0.0
2014-Jul-29 15:27N 24°25' E 118°17'0 0.0
2014-Jul-29 11:05N 24°25' E 118°17'0 0.0
2014-Jul-29 10:33N 24°25' E 118°17'9 9.1
2014-Jul-29 09:33N 24°32' E 118°11'9 8.7
2014-Jul-29 08:33N 24°25' E 118°17'0 0.3
2014-Jul-29 07:33N 24°25' E 118°17'0 0.1
2014-Jul-29 06:33N 24°25' E 118°17'7 7.3
2014-Jul-29 05:33N 24°31' E 118°13'1 1.0
2014-Jul-29 04:33N 24°32' E 118°12'8 5.5
2014-Jul-29 03:05N 24°25' E 118°17'0 0.9
2014-Jul-29 02:33N 24°25' E 118°17'0 0.0
2014-Jul-29 01:32N 24°25' E 118°17'0 0.0
2014-Jul-29 00:33N 24°25' E 118°17'0 0.0
2014-Jul-28 23:33N 24°25' E 118°17'0 0.0
2014-Jul-28 22:33N 24°25' E 118°17'0 0.0
2014-Jul-28 21:33N 24°25' E 118°17'0 0.0
2014-Jul-28 20:34N 24°25' E 118°17'0 0.0
2014-Jul-28 19:33N 24°25' E 118°17'0 0.0
2014-Jul-28 18:33N 24°25' E 118°17'0 0.0
2014-Jul-28 17:33N 24°25' E 118°17'0 0.0
2014-Jul-28 16:33N 24°25' E 118°17'0 0.0
2014-Jul-28 15:33N 24°25' E 118°17'0 0.0
2014-Jul-28 11:05N 24°25' E 118°17'0 0.0
2014-Jul-28 10:33N 24°25' E 118°17'0 0.0
2014-Jul-28 09:33N 24°25' E 118°17'0 0.0
2014-Jul-28 08:33N 24°25' E 118°17'7 6.6
2014-Jul-28 07:33N 24°31' E 118°13'1 0.8
2014-Jul-28 06:33N 24°31' E 118°13'8 7.7
2014-Jul-28 05:33N 24°25' E 118°17'0 0.0
2014-Jul-28 04:33N 24°25' E 118°17'0 0.0
2014-Jul-28 03:33N 24°25' E 118°17'2 1.5
2014-Jul-28 02:33N 24°26' E 118°17'7 6.7
2014-Jul-28 01:33N 24°32' E 118°12'8 6.7
2014-Jul-28 00:22N 24°25' E 118°17'0 0.0
2014-Jul-27 23:34N 24°25' E 118°17'0 0.0
2014-Jul-27 22:33N 24°25' E 118°17'0 0.0
2014-Jul-27 21:30N 24°25' E 118°17'0 0.0
2014-Jul-27 20:24N 24°25' E 118°17'0 0.0
2014-Jul-27 19:20N 24°25' E 118°17'0 0.0
2014-Jul-27 17:20N 24°25' E 118°17'0 0.0
2014-Jul-27 11:04N 24°25' E 118°17'4 7.6
2014-Jul-27 10:33N 24°29' E 118°16'6 5.5
2014-Jul-27 09:32N 24°32' E 118°11'9 9.2
2014-Jul-27 08:33N 24°25' E 118°17'0 0.4
2014-Jul-27 07:32N 24°25' E 118°17'0 0.0
2014-Jul-27 06:32N 24°25' E 118°17'0 0.0
2014-Jul-27 05:33N 24°25' E 118°17'0 0.0
2014-Jul-27 04:33N 24°25' E 118°17'0 0.0
2014-Jul-27 03:33N 24°25' E 118°17'0 0.0
2014-Jul-27 02:33N 24°25' E 118°17'0 0.1
2014-Jul-27 01:33N 24°26' E 118°17'9 8.7
2014-Jul-27 00:34N 24°32' E 118°11'9 9.0
2014-Jul-26 23:33N 24°25' E 118°17'0 0.0
2014-Jul-26 22:33N 24°25' E 118°17'0 0.0
2014-Jul-26 21:33N 24°25' E 118°17'0 0.0
2014-Jul-26 20:33N 24°25' E 118°17'0 0.0
2014-Jul-26 19:34N 24°25' E 118°17'0 0.0
2014-Jul-26 18:33N 24°25' E 118°17'0 0.0
2014-Jul-26 17:33N 24°25' E 118°17'0 0.0
2014-Jul-26 16:33N 24°25' E 118°17'0 0.0
2014-Jul-26 15:32N 24°25' E 118°17'0 0.0
2014-Jul-26 11:05N 24°25' E 118°17'815.2
2014-Jul-26 10:32N 24°32' E 118°12'8 8.0
2014-Jul-26 09:33N 24°25' E 118°17'0 0.4
2014-Jul-26 08:33N 24°25' E 118°17'0 0.0
2014-Jul-26 07:33N 24°25' E 118°17'8 7.6
2014-Jul-26 06:34N 24°31' E 118°13'1 0.6
2014-Jul-26 05:33N 24°32' E 118°12'8 8.1
2014-Jul-26 04:33N 24°25' E 118°17'0 0.2
2014-Jul-26 02:16N 24°25' E 118°17'0 0.0
2014-Jul-26 01:31N 24°25' E 118°17'0 0.0
2014-Jul-26 00:32N 24°25' E 118°17'0 0.0
2014-Jul-25 23:33N 24°25' E 118°17'0 0.0
2014-Jul-25 22:33N 24°25' E 118°17'0 0.0
2014-Jul-25 21:33N 24°25' E 118°17'0 0.0
2014-Jul-25 20:33N 24°25' E 118°17'0 0.0
2014-Jul-25 19:32N 24°25' E 118°17'0 0.0
2014-Jul-25 18:33N 24°25' E 118°17'0 0.0
2014-Jul-25 17:34N 24°25' E 118°17'0 0.0
2014-Jul-25 16:33N 24°25' E 118°17'0 0.0
2014-Jul-25 15:33N 24°25' E 118°17'0 0.0
2014-Jul-25 11:05N 24°25' E 118°17'0 0.0
2014-Jul-25 10:33N 24°25' E 118°17'0 0.5
2014-Jul-25 09:33N 24°25' E 118°17'9 9.1
2014-Jul-25 08:33N 24°32' E 118°11'9 8.4
2014-Jul-25 07:32N 24°25' E 118°17'0 0.4
2014-Jul-25 06:27N 24°25' E 118°17'9 9.8
2014-Jul-25 05:33N 24°32' E 118°12'0 0.5
2014-Jul-25 04:33N 24°32' E 118°12'8 7.2
2014-Jul-25 03:23N 24°25' E 118°17'0 0.5
2014-Jul-25 02:32N 24°25' E 118°17'0 0.0
2014-Jul-25 01:32N 24°25' E 118°17'0 0.0
2014-Jul-24 17:15N 24°25' E 118°17'0 0.0
2014-Jul-24 16:32N 24°25' E 118°17'0 0.0
2014-Jul-24 15:26N 24°25' E 118°17'0 0.0
2014-Jul-24 11:33N 24°25' E 118°17'0 0.0
2014-Jul-24 08:15N 24°25' E 118°17'910.8
2014-Jul-24 07:27N 24°32' E 118°11'2 1.8
2014-Jul-24 06:33N 24°31' E 118°13'8 7.0
2014-Jul-24 05:29N 24°25' E 118°17'0 0.2
2014-Jul-24 03:09N 24°25' E 118°17'3 5.2
2014-Jul-24 02:33N 24°28' E 118°16'3 3.3
2014-Jul-24 01:33N 24°31' E 118°14'7 6.6
2014-Jul-24 00:33N 24°25' E 118°17'0 0.0
2014-Jul-23 23:33N 24°25' E 118°17'0 0.3
2014-Jul-23 22:33N 24°25' E 118°18'0 0.0
2014-Jul-23 21:33N 24°25' E 118°18'0 0.0
2014-Jul-23 20:33N 24°25' E 118°18'0 0.0
2014-Jul-23 19:33N 24°25' E 118°18'0 0.0
2014-Jul-23 18:33N 24°25' E 118°18'0 0.0
2014-Jul-23 17:33N 24°25' E 118°18'0 0.0
2014-Jul-23 16:33N 24°25' E 118°18'0 0.0
2014-Jul-23 15:33N 24°25' E 118°18'0 0.0
2014-Jul-23 11:04N 24°25' E 118°18'0 0.0
2014-Jul-23 10:33N 24°25' E 118°18'0 0.0
2014-Jul-23 09:33N 24°25' E 118°18'0 0.0
2014-Jul-23 08:33N 24°25' E 118°18'0 0.0
2014-Jul-23 07:32N 24°25' E 118°18'0 0.0
2014-Jul-23 06:33N 24°25' E 118°18'0 0.0
2014-Jul-23 05:33N 24°25' E 118°18'0 0.0
2014-Jul-23 04:23N 24°25' E 118°18'0 0.0
2014-Jul-23 03:33N 24°25' E 118°18'0 0.0
2014-Jul-23 02:33N 24°25' E 118°18'0 0.0
2014-Jul-23 01:33N 24°25' E 118°18'0 0.0
2014-Jul-23 00:33N 24°25' E 118°18'0 0.0
2014-Jul-22 23:32N 24°25' E 118°18'0 0.0
2014-Jul-22 22:33N 24°25' E 118°18'0 0.0
2014-Jul-22 21:33N 24°25' E 118°18'0 0.0
2014-Jul-22 20:33N 24°25' E 118°18'0 0.0
2014-Jul-22 19:34N 24°25' E 118°18'0 0.0
2014-Jul-22 18:33N 24°25' E 118°18'0 0.0
2014-Jul-22 17:33N 24°25' E 118°18'0 0.0
2014-Jul-22 16:33N 24°25' E 118°18'0 0.0
2014-Jul-22 15:33N 24°25' E 118°18'0 0.0
2014-Jul-22 11:05N 24°25' E 118°18'0 0.0
2014-Jul-22 10:33N 24°25' E 118°18'0 0.0
2014-Jul-22 09:33N 24°25' E 118°18'0 0.0
2014-Jul-22 08:32N 24°25' E 118°18'0 0.4
2014-Jul-22 07:33N 24°25' E 118°17'9 8.9
2014-Jul-22 06:33N 24°32' E 118°11'2 2.3
2014-Jul-22 05:33N 24°31' E 118°13'7 6.8
2014-Jul-22 04:31N 24°25' E 118°17'0 0.5
2014-Jul-22 03:33N 24°25' E 118°17'0 0.0
2014-Jul-22 02:33N 24°25' E 118°17'0 0.4
2014-Jul-22 01:33N 24°26' E 118°17'7 7.4
2014-Jul-22 00:34N 24°32' E 118°12'8 7.2
2014-Jul-21 23:26N 24°25' E 118°17'0 0.0
2014-Jul-21 22:33N 24°25' E 118°17'0 0.0
2014-Jul-21 11:04N 24°25' E 118°17'814.7
2014-Jul-21 10:33N 24°31' E 118°13'7 7.4
2014-Jul-21 09:33N 24°25' E 118°17'0 0.3
2014-Jul-21 08:33N 24°25' E 118°17'0 0.0
2014-Jul-21 02:30N 24°25' E 118°17'0 0.0
2014-Jul-21 01:18N 24°25' E 118°17'0 0.0
2014-Jul-21 00:24N 24°25' E 118°17'0 0.0
2014-Jul-20 23:07N 24°25' E 118°17'0 0.0
2014-Jul-20 22:30N 24°25' E 118°17'0 0.0
2014-Jul-20 21:33N 24°25' E 118°17'0 0.0
2014-Jul-20 20:29N 24°25' E 118°17'0 0.0
2014-Jul-20 19:33N 24°25' E 118°17'0 0.0
2014-Jul-20 18:26N 24°25' E 118°17'0 0.0
2014-Jul-20 10:33N 24°25' E 118°17'0 0.0
2014-Jul-20 09:32N 24°25' E 118°17'  
Track history (hours):
 
Tides and Currents Weather Stations Pressure Air Temp Water Temp Dewpoint Dewpoint Depression Visibility Wind Speed Wind Dir Waves Ship Positions

Marco Polo

Last reported at 2014-Jul-30 09:31 UTC. Time now 2014-Jul-30 13:11 UTC.
Position N 24°26' E 118°17'.

Length 32 m.

MMSI: 416000256.

Date/timePositionNaut miles runAvg speedWind from/ knotsBaromVisibWave heightAir tempDewpointWater temp
2014-Jul-30 09:31N 24°26' E 118°17'8 8.8
2014-Jul-30 08:33N 24°32' E 118°11'9 8.6
2014-Jul-30 07:31N 24°25' E 118°17'0 0.0
2014-Jul-30 06:27N 24°25' E 118°17'0 0.1
2014-Jul-30 05:33N 24°25' E 118°17'0 0.0
2014-Jul-30 04:33N 24°25' E 118°17'0 0.0
2014-Jul-30 03:33N 24°25' E 118°17'1 1.3
2014-Jul-30 02:33N 24°26' E 118°17'7 7.3
2014-Jul-30 01:33N 24°32' E 118°12'8 7.9
2014-Jul-30 00:29N 24°25' E 118°17'0 0.0
2014-Jul-29 23:33N 24°25' E 118°17'0 0.0
2014-Jul-29 22:31N 24°25' E 118°17'0 0.0
2014-Jul-29 18:30N 24°25' E 118°17'0 0.0
2014-Jul-29 17:29N 24°25' E 118°17'0 0.0
2014-Jul-29 15:27N 24°25' E 118°17'0 0.0
2014-Jul-29 11:05N 24°25' E 118°17'0 0.0
2014-Jul-29 10:33N 24°25' E 118°17'9 9.1
2014-Jul-29 09:33N 24°32' E 118°11'9 8.7
2014-Jul-29 08:33N 24°25' E 118°17'0 0.3
2014-Jul-29 07:33N 24°25' E 118°17'0 0.1
2014-Jul-29 06:33N 24°25' E 118°17'7 7.3
2014-Jul-29 05:33N 24°31' E 118°13'1 1.0
2014-Jul-29 04:33N 24°32' E 118°12'8 5.5
2014-Jul-29 03:05N 24°25' E 118°17'0 0.9
2014-Jul-29 02:33N 24°25' E 118°17'0 0.0
2014-Jul-29 01:32N 24°25' E 118°17'0 0.0
2014-Jul-29 00:33N 24°25' E 118°17'0 0.0
2014-Jul-28 23:33N 24°25' E 118°17'0 0.0
2014-Jul-28 22:33N 24°25' E 118°17'0 0.0
2014-Jul-28 21:33N 24°25' E 118°17'0 0.0
2014-Jul-28 20:34N 24°25' E 118°17'0 0.0
2014-Jul-28 19:33N 24°25' E 118°17'0 0.0
2014-Jul-28 18:33N 24°25' E 118°17'0 0.0
2014-Jul-28 17:33N 24°25' E 118°17'0 0.0
2014-Jul-28 16:33N 24°25' E 118°17'0 0.0
2014-Jul-28 15:33N 24°25' E 118°17'0 0.0
2014-Jul-28 11:05N 24°25' E 118°17'0 0.0
2014-Jul-28 10:33N 24°25' E 118°17'0 0.0
2014-Jul-28 09:33N 24°25' E 118°17'0 0.0
2014-Jul-28 08:33N 24°25' E 118°17'7 6.6
2014-Jul-28 07:33N 24°31' E 118°13'1 0.8
2014-Jul-28 06:33N 24°31' E 118°13'8 7.7
2014-Jul-28 05:33N 24°25' E 118°17'0 0.0
2014-Jul-28 04:33N 24°25' E 118°17'0 0.0
2014-Jul-28 03:33N 24°25' E 118°17'2 1.5
2014-Jul-28 02:33N 24°26' E 118°17'7 6.7
2014-Jul-28 01:33N 24°32' E 118°12'8 6.7
2014-Jul-28 00:22N 24°25' E 118°17'0 0.0
2014-Jul-27 23:34N 24°25' E 118°17'0 0.0
2014-Jul-27 22:33N 24°25' E 118°17'0 0.0
2014-Jul-27 21:30N 24°25' E 118°17'0 0.0
2014-Jul-27 20:24N 24°25' E 118°17'0 0.0
2014-Jul-27 19:20N 24°25' E 118°17'0 0.0
2014-Jul-27 17:20N 24°25' E 118°17'0 0.0
2014-Jul-27 11:04N 24°25' E 118°17'4 7.6
2014-Jul-27 10:33N 24°29' E 118°16'6 5.5
2014-Jul-27 09:32N 24°32' E 118°11'9 9.2
2014-Jul-27 08:33N 24°25' E 118°17'0 0.4
2014-Jul-27 07:32N 24°25' E 118°17'0 0.0
2014-Jul-27 06:32N 24°25' E 118°17'0 0.0
2014-Jul-27 05:33N 24°25' E 118°17'0 0.0
2014-Jul-27 04:33N 24°25' E 118°17'0 0.0
2014-Jul-27 03:33N 24°25' E 118°17'0 0.0
2014-Jul-27 02:33N 24°25' E 118°17'0 0.1
2014-Jul-27 01:33N 24°26' E 118°17'9 8.7
2014-Jul-27 00:34N 24°32' E 118°11'9 9.0
2014-Jul-26 23:33N 24°25' E 118°17'0 0.0
2014-Jul-26 22:33N 24°25' E 118°17'0 0.0
2014-Jul-26 21:33N 24°25' E 118°17'0 0.0
2014-Jul-26 20:33N 24°25' E 118°17'0 0.0
2014-Jul-26 19:34N 24°25' E 118°17'0 0.0
2014-Jul-26 18:33N 24°25' E 118°17'0 0.0
2014-Jul-26 17:33N 24°25' E 118°17'0 0.0
2014-Jul-26 16:33N 24°25' E 118°17'0 0.0
2014-Jul-26 15:32N 24°25' E 118°17'0 0.0
2014-Jul-26 11:05N 24°25' E 118°17'815.2
2014-Jul-26 10:32N 24°32' E 118°12'8 8.0
2014-Jul-26 09:33N 24°25' E 118°17'0 0.4
2014-Jul-26 08:33N 24°25' E 118°17'0 0.0
2014-Jul-26 07:33N 24°25' E 118°17'8 7.6
2014-Jul-26 06:34N 24°31' E 118°13'1 0.6
2014-Jul-26 05:33N 24°32' E 118°12'8 8.1
2014-Jul-26 04:33N 24°25' E 118°17'0 0.2
2014-Jul-26 02:16N 24°25' E 118°17'0 0.0
2014-Jul-26 01:31N 24°25' E 118°17'0 0.0
2014-Jul-26 00:32N 24°25' E 118°17'0 0.0
2014-Jul-25 23:33N 24°25' E 118°17'0 0.0
2014-Jul-25 22:33N 24°25' E 118°17'0 0.0
2014-Jul-25 21:33N 24°25' E 118°17'0 0.0
2014-Jul-25 20:33N 24°25' E 118°17'0 0.0
2014-Jul-25 19:32N 24°25' E 118°17'0 0.0
2014-Jul-25 18:33N 24°25' E 118°17'0 0.0
2014-Jul-25 17:34N 24°25' E 118°17'0 0.0
2014-Jul-25 16:33N 24°25' E 118°17'0 0.0
2014-Jul-25 15:33N 24°25' E 118°17'0 0.0
2014-Jul-25 11:05N 24°25' E 118°17'0 0.0
2014-Jul-25 10:33N 24°25' E 118°17'0 0.5
2014-Jul-25 09:33N 24°25' E 118°17'9 9.1
2014-Jul-25 08:33N 24°32' E 118°11'9 8.4
2014-Jul-25 07:32N 24°25' E 118°17'0 0.4
2014-Jul-25 06:27N 24°25' E 118°17'9 9.8
2014-Jul-25 05:33N 24°32' E 118°12'0 0.5
2014-Jul-25 04:33N 24°32' E 118°12'8 7.2
2014-Jul-25 03:23N 24°25' E 118°17'0 0.5
2014-Jul-25 02:32N 24°25' E 118°17'0 0.0
2014-Jul-25 01:32N 24°25' E 118°17'0 0.0
2014-Jul-24 17:15N 24°25' E 118°17'0 0.0
2014-Jul-24 16:32N 24°25' E 118°17'0 0.0
2014-Jul-24 15:26N 24°25' E 118°17'0 0.0
2014-Jul-24 11:33N 24°25' E 118°17'0 0.0
2014-Jul-24 08:15N 24°25' E 118°17'910.8
2014-Jul-24 07:27N 24°32' E 118°11'2 1.8
2014-Jul-24 06:33N 24°31' E 118°13'8 7.0
2014-Jul-24 05:29N 24°25' E 118°17'0 0.2
2014-Jul-24 03:09N 24°25' E 118°17'3 5.2
2014-Jul-24 02:33N 24°28' E 118°16'3 3.3
2014-Jul-24 01:33N 24°31' E 118°14'7 6.6
2014-Jul-24 00:33N 24°25' E 118°17'0 0.0
2014-Jul-23 23:33N 24°25' E 118°17'0 0.3
2014-Jul-23 22:33N 24°25' E 118°18'0 0.0
2014-Jul-23 21:33N 24°25' E 118°18'0 0.0
2014-Jul-23 20:33N 24°25' E 118°18'0 0.0
2014-Jul-23 19:33N 24°25' E 118°18'0 0.0
2014-Jul-23 18:33N 24°25' E 118°18'0 0.0
2014-Jul-23 17:33N 24°25' E 118°18'0 0.0
2014-Jul-23 16:33N 24°25' E 118°18'0 0.0
2014-Jul-23 15:33N 24°25' E 118°18'0 0.0
2014-Jul-23 11:04N 24°25' E 118°18'0 0.0
2014-Jul-23 10:33N 24°25' E 118°18'0 0.0
2014-Jul-23 09:33N 24°25' E 118°18'0 0.0
2014-Jul-23 08:33N 24°25' E 118°18'0 0.0
2014-Jul-23 07:32N 24°25' E 118°18'0 0.0
2014-Jul-23 06:33N 24°25' E 118°18'0 0.0
2014-Jul-23 05:33N 24°25' E 118°18'0 0.0
2014-Jul-23 04:23N 24°25' E 118°18'0 0.0
2014-Jul-23 03:33N 24°25' E 118°18'0 0.0
2014-Jul-23 02:33N 24°25' E 118°18'0 0.0
2014-Jul-23 01:33N 24°25' E 118°18'0 0.0
2014-Jul-23 00:33N 24°25' E 118°18'0 0.0
2014-Jul-22 23:32N 24°25' E 118°18'0 0.0
2014-Jul-22 22:33N 24°25' E 118°18'0 0.0
2014-Jul-22 21:33N 24°25' E 118°18'0 0.0
2014-Jul-22 20:33N 24°25' E 118°18'0 0.0
2014-Jul-22 19:34N 24°25' E 118°18'0 0.0
2014-Jul-22 18:33N 24°25' E 118°18'0 0.0
2014-Jul-22 17:33N 24°25' E 118°18'0 0.0
2014-Jul-22 16:33N 24°25' E 118°18'0 0.0
2014-Jul-22 15:33N 24°25' E 118°18'0 0.0
2014-Jul-22 11:05N 24°25' E 118°18'0 0.0
2014-Jul-22 10:33N 24°25' E 118°18'0 0.0
2014-Jul-22 09:33N 24°25' E 118°18'0 0.0
2014-Jul-22 08:32N 24°25' E 118°18'0 0.4
2014-Jul-22 07:33N 24°25' E 118°17'9 8.9
2014-Jul-22 06:33N 24°32' E 118°11'2 2.3
2014-Jul-22 05:33N 24°31' E 118°13'7 6.8
2014-Jul-22 04:31N 24°25' E 118°17'0 0.5
2014-Jul-22 03:33N 24°25' E 118°17'0 0.0
2014-Jul-22 02:33N 24°25' E 118°17'0 0.4
2014-Jul-22 01:33N 24°26' E 118°17'7 7.4
2014-Jul-22 00:34N 24°32' E 118°12'8 7.2
2014-Jul-21 23:26N 24°25' E 118°17'0 0.0
2014-Jul-21 22:33N 24°25' E 118°17'0 0.0
2014-Jul-21 11:04N 24°25' E 118°17'814.7
2014-Jul-21 10:33N 24°31' E 118°13'7 7.4
2014-Jul-21 09:33N 24°25' E 118°17'0 0.3
2014-Jul-21 08:33N 24°25' E 118°17'0 0.0
2014-Jul-21 02:30N 24°25' E 118°17'0 0.0
2014-Jul-21 01:18N 24°25' E 118°17'0 0.0
2014-Jul-21 00:24N 24°25' E 118°17'0 0.0
2014-Jul-20 23:07N 24°25' E 118°17'0 0.0
2014-Jul-20 22:30N 24°25' E 118°17'0 0.0
2014-Jul-20 21:33N 24°25' E 118°17'0 0.0
2014-Jul-20 20:29N 24°25' E 118°17'0 0.0
2014-Jul-20 19:33N 24°25' E 118°17'0 0.0
2014-Jul-20 18:26N 24°25' E 118°17'0 0.0
2014-Jul-20 10:33N 24°25' E 118°17'0 0.0
2014-Jul-20 09:32N 24°25' E 118°17'  

Dump ship's entire track history